Wind Cave Natl Park, South Dakota
Current Conditions -  °F | °C
As of 4:53 AM on Thursday 29 Jan 2015 (Local Time) from KCUT Reporting Station
Clear Clear  
Wind Chill: 18°   Ceiling: Unl
Heat Index: 26°   Visibility: 10mi
Dew Point: -5°   Wind: 7mph
Humidity: 26%   Direction: 60°ENE
Pressure: 30.33"   Gusts: NA
Location:  43.59°N, 103.42°W
Report Text: KCUT 291153Z AUTO 06006KT 10SM CLR M03/M21 A3033 RMK AO2 SLP290 T10331206 11006 21039 51015
Loading
Personal Weather Stations






























Interactive Weather Map New forecast layout! Learn more

10-Day Weather Forecast

Advertisements
Track Severe Weather on mobile